createdAt,value
2022-11-26T00:02:30.722Z,22.00
2022-11-26T00:04:59.717Z,23.00
2022-11-26T00:07:30.820Z,23.40
2022-11-26T00:09:59.614Z,22.80
2022-11-26T00:12:32.819Z,21.80
2022-11-26T00:15:14.786Z,23.10
2022-11-26T00:17:42.675Z,22.40
2022-11-26T00:20:10.591Z,21.40
2022-11-26T00:23:01.465Z,22.30
2022-11-26T00:25:45.169Z,22.50
2022-11-26T00:28:30.041Z,20.50
2022-11-26T00:31:06.612Z,20.90
2022-11-26T00:33:34.550Z,20.30
2022-11-26T00:36:10.340Z,21.60
2022-11-26T00:38:38.553Z,23.30
2022-11-26T00:41:19.407Z,22.70
2022-11-26T00:43:47.812Z,20.70
2022-11-26T00:46:17.834Z,22.20
2022-11-26T00:48:45.875Z,20.90
2022-11-26T00:51:20.728Z,20.20
2022-11-26T00:53:49.905Z,20.40
2022-11-26T00:56:20.671Z,20.00
2022-11-26T00:58:50.285Z,18.50
2022-11-26T01:01:21.477Z,19.10
2022-11-26T01:03:50.052Z,19.50
2022-11-26T01:06:21.493Z,19.70
2022-11-26T01:08:49.696Z,19.10
2022-11-26T01:11:20.698Z,19.10
2022-11-26T01:16:25.409Z,20.40
2022-11-26T01:18:55.608Z,19.70
2022-11-26T01:21:25.955Z,20.30
2022-11-26T01:23:53.800Z,21.20
2022-11-26T01:26:27.671Z,21.00
2022-11-26T01:28:56.106Z,21.70
2022-11-26T01:31:27.449Z,22.10
2022-11-26T01:33:56.066Z,22.80
2022-11-26T01:36:33.198Z,21.60
2022-11-26T01:39:07.881Z,21.70
2022-11-26T01:42:03.731Z,22.20
2022-11-26T01:44:34.377Z,21.50
2022-11-26T01:47:17.892Z,21.00
2022-11-26T01:50:23.566Z,22.00
2022-11-26T01:52:51.532Z,21.70
2022-11-26T01:55:19.615Z,22.10
2022-11-26T01:57:47.971Z,21.90
2022-11-26T02:00:16.449Z,21.90
2022-11-26T02:02:45.751Z,21.40
2022-11-26T02:05:24.596Z,22.10
2022-11-26T02:07:53.570Z,21.10
2022-11-26T02:10:21.502Z,20.30
2022-11-26T02:12:50.904Z,21.80
2022-11-26T02:15:18.869Z,20.90
2022-11-26T02:17:55.554Z,20.20
2022-11-26T02:20:34.771Z,20.70
2022-11-26T02:23:27.479Z,21.30
2022-11-26T02:26:07.894Z,20.70
2022-11-26T02:29:00.575Z,20.60
2022-11-26T02:31:49.949Z,20.40
2022-11-26T02:34:43.209Z,22.00
2022-11-26T02:37:19.342Z,22.10
2022-11-26T02:39:47.476Z,21.00
2022-11-26T02:42:42.114Z,22.30
2022-11-26T02:45:16.290Z,20.40
2022-11-26T02:47:47.515Z,21.70
2022-11-26T02:55:19.465Z,21.20
2022-11-26T02:57:50.790Z,23.40
2022-11-26T03:00:19.518Z,22.30
2022-11-26T03:02:50.087Z,21.90
2022-11-26T03:05:19.825Z,25.00
2022-11-26T03:07:50.951Z,26.00
2022-11-26T03:12:48.471Z,21.10
2022-11-26T03:15:16.303Z,23.30
2022-11-26T03:17:44.152Z,23.30
2022-11-26T03:20:12.179Z,24.10
2022-11-26T03:22:39.994Z,22.90
2022-11-26T03:25:08.697Z,21.70
2022-11-26T03:27:36.608Z,24.10
2022-11-26T03:30:05.271Z,24.60
2022-11-26T03:32:33.148Z,23.50
2022-11-26T03:35:00.955Z,22.50
2022-11-26T03:37:28.950Z,23.10
2022-11-26T03:39:56.763Z,22.50
2022-11-26T03:42:24.725Z,22.70
2022-11-26T03:44:52.776Z,24.20
2022-11-26T03:47:21.083Z,24.60
2022-11-26T03:49:49.032Z,25.00
2022-11-26T03:52:16.909Z,23.30
2022-11-26T03:54:44.790Z,21.80
2022-11-26T03:57:12.837Z,24.40
2022-11-26T03:59:40.709Z,23.70
2022-11-26T04:02:08.948Z,23.10
2022-11-26T04:04:37.022Z,22.30
2022-11-26T04:07:05.266Z,23.70
2022-11-26T04:09:33.343Z,23.80
2022-11-26T04:12:01.565Z,23.20
2022-11-26T04:14:29.449Z,22.20
2022-11-26T04:16:57.405Z,24.10
2022-11-26T04:19:25.426Z,22.50
2022-11-26T04:21:53.303Z,23.90
2022-11-26T04:24:21.271Z,23.00
2022-11-26T04:26:49.161Z,23.80
2022-11-26T04:29:17.030Z,22.50
2022-11-26T04:31:44.934Z,22.90
2022-11-26T04:34:12.860Z,22.30
2022-11-26T04:36:40.902Z,23.30
2022-11-26T04:39:08.843Z,22.70
2022-11-26T04:41:36.766Z,20.00
2022-11-26T04:44:05.025Z,20.70
2022-11-26T04:46:32.954Z,20.00
2022-11-26T04:49:00.835Z,20.80
2022-11-26T04:51:28.688Z,21.30
2022-11-26T04:53:58.369Z,22.20
2022-11-26T04:56:28.325Z,20.10
2022-11-26T04:58:56.244Z,23.30
2022-11-26T05:01:24.579Z,22.40
2022-11-26T05:03:52.493Z,21.20
2022-11-26T05:06:20.345Z,23.50
2022-11-26T05:08:48.362Z,23.50
2022-11-26T05:11:16.244Z,21.00
2022-11-26T05:13:44.232Z,20.10
2022-11-26T05:16:12.081Z,21.60
2022-11-26T05:18:40.229Z,20.70
2022-11-26T05:21:08.139Z,20.80
2022-11-26T05:23:36.026Z,22.50
2022-11-26T05:26:03.970Z,20.70
2022-11-26T05:28:31.867Z,22.30
2022-11-26T05:31:01.645Z,21.50
2022-11-26T05:33:30.334Z,21.30
2022-11-26T05:35:58.350Z,23.20
2022-11-26T05:38:26.222Z,22.50
2022-11-26T05:40:54.078Z,25.10
2022-11-26T05:43:22.205Z,25.90
2022-11-26T05:45:50.058Z,25.50
2022-11-26T05:48:17.998Z,24.10
2022-11-26T05:50:50.137Z,25.40
2022-11-26T05:53:21.027Z,24.80
2022-11-26T05:55:48.961Z,23.30
2022-11-26T05:58:17.201Z,22.90
2022-11-26T06:00:45.220Z,21.20
2022-11-26T06:03:17.005Z,23.10
2022-11-26T06:05:47.990Z,24.70
2022-11-26T06:08:15.828Z,25.30
2022-11-26T06:10:44.498Z,26.30
2022-11-26T06:13:12.423Z,25.90
2022-11-26T06:15:40.219Z,25.70
2022-11-26T06:18:08.076Z,26.40
2022-11-26T06:20:37.619Z,25.80
2022-11-26T06:23:05.937Z,24.50
2022-11-26T06:25:36.314Z,25.10
2022-11-26T06:28:17.139Z,26.30
2022-11-26T06:30:52.914Z,26.10
2022-11-26T06:33:26.430Z,25.90
2022-11-26T06:36:02.083Z,28.10
2022-11-26T06:38:29.984Z,24.90
2022-11-26T06:41:02.053Z,26.20
2022-11-26T06:43:30.615Z,26.50
2022-11-26T06:46:07.034Z,29.10
2022-11-26T06:48:36.238Z,25.70
2022-11-26T06:51:14.899Z,28.20
2022-11-26T06:53:43.045Z,28.50
2022-11-26T06:56:18.119Z,25.90
2022-11-26T06:58:48.447Z,26.70
2022-11-26T07:01:23.987Z,26.40
2022-11-26T07:03:53.404Z,25.90
2022-11-26T07:06:24.019Z,27.30
2022-11-26T07:08:53.490Z,29.70
2022-11-26T07:11:22.400Z,31.10
2022-11-26T07:13:51.075Z,28.90
2022-11-26T07:16:19.065Z,29.40
2022-11-26T07:18:55.207Z,27.80
2022-11-26T07:21:27.205Z,25.90
2022-11-26T07:23:55.340Z,30.20
2022-11-26T07:26:23.978Z,33.20
2022-11-26T07:28:52.143Z,35.70
2022-11-26T07:31:22.095Z,45.10
2022-11-26T07:33:50.797Z,42.20
2022-11-26T07:36:24.709Z,40.00
2022-11-26T07:38:57.298Z,33.50
2022-11-26T07:41:26.839Z,32.90
2022-11-26T07:43:55.066Z,32.20
2022-11-26T07:46:26.271Z,29.10
2022-11-26T07:48:57.332Z,28.10
2022-11-26T07:53:56.779Z,26.50
2022-11-26T07:56:24.946Z,27.20
2022-11-26T07:58:52.826Z,28.60
2022-11-26T08:01:23.476Z,29.80
2022-11-26T08:03:51.904Z,30.70
2022-11-26T08:06:22.848Z,29.60
2022-11-26T08:08:51.344Z,30.60
2022-11-26T08:11:22.277Z,32.30
2022-11-26T08:16:20.994Z,33.20
2022-11-26T08:18:52.617Z,39.80
2022-11-26T08:21:21.454Z,35.00
2022-11-26T08:23:49.776Z,34.10
2022-11-26T08:26:25.248Z,36.80
2022-11-26T08:28:56.314Z,38.00
2022-11-26T08:31:27.729Z,50.70
2022-11-26T08:33:58.085Z,43.80
2022-11-26T08:36:30.589Z,33.00
2022-11-26T08:39:00.838Z,29.50
2022-11-26T08:41:29.198Z,28.10
2022-11-26T08:44:12.428Z,25.90
2022-11-26T08:46:41.959Z,26.00
2022-11-26T08:49:13.250Z,24.90
2022-11-26T08:51:41.949Z,24.90
2022-11-26T08:54:10.831Z,26.60
2022-11-26T08:56:38.794Z,26.10
2022-11-26T08:59:06.687Z,25.40
2022-11-26T09:01:34.637Z,24.90
2022-11-26T09:04:04.261Z,25.20
2022-11-26T09:06:34.296Z,24.80
2022-11-26T09:09:13.761Z,25.30
2022-11-26T09:11:42.147Z,28.20
2022-11-26T09:14:11.380Z,26.00
2022-11-26T09:16:39.699Z,25.50
2022-11-26T09:19:08.490Z,23.30
2022-11-26T09:21:36.601Z,25.10
2022-11-26T09:24:05.136Z,29.10
2022-11-26T09:26:33.564Z,30.70
2022-11-26T09:29:02.192Z,28.90
2022-11-26T09:31:30.956Z,27.70
2022-11-26T09:34:01.203Z,30.20
2022-11-26T09:36:29.613Z,31.10
2022-11-26T09:38:59.212Z,30.90
2022-11-26T09:41:51.664Z,29.30
2022-11-26T09:44:36.884Z,28.70
2022-11-26T09:47:38.620Z,26.10
2022-11-26T09:52:40.374Z,22.20
2022-11-26T09:55:14.276Z,22.80
2022-11-26T09:57:49.353Z,20.10
2022-11-26T10:00:25.787Z,19.50
2022-11-26T10:02:58.059Z,20.90
2022-11-26T10:05:42.459Z,22.80
2022-11-26T10:08:57.949Z,20.90
2022-11-26T10:11:35.456Z,21.70
2022-11-26T10:14:39.663Z,21.00
2022-11-26T10:17:25.620Z,21.90
2022-11-26T10:20:42.082Z,23.10
2022-11-26T10:23:12.943Z,23.40
2022-11-26T10:28:39.363Z,22.00
2022-11-26T10:31:18.751Z,20.40
2022-11-26T10:33:55.629Z,24.30
2022-11-26T10:36:34.090Z,20.90
2022-11-26T10:39:02.259Z,22.70
2022-11-26T10:41:33.813Z,24.20
2022-11-26T10:44:41.616Z,27.40
2022-11-26T10:47:30.832Z,23.60
2022-11-26T10:50:25.149Z,23.60
2022-11-26T10:52:53.382Z,23.40
2022-11-26T10:55:33.786Z,24.30
2022-11-26T10:58:05.955Z,22.40
2022-11-26T11:00:43.228Z,21.20
2022-11-26T11:03:44.500Z,24.80
2022-11-26T11:06:18.898Z,22.50
2022-11-26T11:08:50.076Z,22.30
2022-11-26T11:11:29.961Z,19.90
2022-11-26T11:13:58.354Z,19.80
2022-11-26T11:16:37.614Z,21.30
2022-11-26T11:19:22.067Z,23.20
2022-11-26T11:21:50.839Z,23.50
2022-11-26T11:24:23.299Z,23.50
2022-11-26T11:26:55.837Z,23.10
2022-11-26T11:29:26.700Z,22.80
2022-11-26T11:31:55.958Z,21.70
2022-11-26T11:34:31.739Z,20.80
2022-11-26T11:37:03.592Z,21.40
2022-11-26T11:39:34.333Z,22.50
2022-11-26T11:42:06.903Z,22.80
2022-11-26T11:44:49.330Z,23.20
2022-11-26T11:47:35.927Z,21.40
2022-11-26T11:50:31.735Z,21.00
2022-11-26T11:53:02.029Z,19.80
2022-11-26T11:55:35.708Z,20.10
2022-11-26T11:58:48.029Z,21.40
2022-11-26T12:01:31.904Z,18.70
2022-11-26T12:04:19.909Z,20.40
2022-11-26T12:07:27.492Z,22.00
2022-11-26T12:10:12.768Z,19.30
2022-11-26T12:12:47.734Z,23.50
2022-11-26T12:15:43.057Z,20.40
2022-11-26T12:18:17.110Z,21.40
2022-11-26T12:20:52.465Z,23.20
2022-11-26T12:23:44.592Z,21.30
2022-11-26T12:26:19.009Z,42.30
2022-11-26T12:28:56.248Z,61.80
2022-11-26T12:31:35.026Z,53.40
2022-11-26T12:34:08.972Z,39.70
2022-11-26T12:36:51.180Z,22.50
2022-11-26T12:39:29.743Z,17.90
2022-11-26T12:42:11.499Z,16.80
2022-11-26T12:44:48.227Z,14.50
2022-11-26T12:47:20.686Z,16.70
2022-11-26T12:49:54.450Z,19.10
2022-11-26T12:52:36.611Z,16.50
2022-11-26T12:55:10.467Z,18.90
2022-11-26T12:57:42.797Z,17.50
2022-11-26T13:00:19.995Z,17.00
2022-11-26T13:02:52.418Z,19.30
2022-11-26T13:05:24.531Z,19.30
2022-11-26T13:08:04.693Z,20.60
2022-11-26T13:10:44.866Z,20.50
2022-11-26T13:13:50.888Z,25.10
2022-11-26T13:16:39.126Z,20.10
2022-11-26T13:19:16.034Z,18.30
2022-11-26T13:22:10.344Z,17.20
2022-11-26T13:24:41.248Z,17.60
2022-11-26T13:27:26.656Z,16.30
2022-11-26T13:30:01.885Z,16.00
2022-11-26T13:32:38.732Z,18.60
2022-11-26T13:35:18.690Z,17.60
2022-11-26T13:38:21.109Z,18.60
2022-11-26T13:41:15.326Z,17.80
2022-11-26T13:44:14.239Z,17.50
2022-11-26T13:46:49.685Z,17.90
2022-11-26T13:49:33.546Z,17.80
2022-11-26T13:52:04.766Z,17.20
2022-11-26T13:55:02.119Z,17.40
2022-11-26T13:57:40.956Z,21.00
2022-11-26T14:00:10.243Z,18.30
2022-11-26T14:02:44.795Z,18.80
2022-11-26T14:05:15.560Z,20.40
2022-11-26T14:07:45.502Z,20.50
2022-11-26T14:10:36.084Z,30.90
2022-11-26T14:13:04.006Z,24.00
2022-11-26T14:15:40.569Z,25.70
2022-11-26T14:18:13.502Z,27.00
2022-11-26T14:21:03.908Z,23.50
2022-11-26T14:23:41.117Z,29.40
2022-11-26T14:26:18.326Z,25.90
2022-11-26T14:28:48.513Z,19.80
2022-11-26T14:31:32.307Z,21.90
2022-11-26T14:34:09.648Z,24.20
2022-11-26T14:36:51.651Z,20.40
2022-11-26T14:39:19.518Z,20.20
2022-11-26T14:41:47.377Z,23.00
2022-11-26T14:44:17.908Z,22.60
2022-11-26T14:46:49.130Z,29.00
2022-11-26T14:49:38.223Z,27.70
2022-11-26T14:52:24.929Z,27.70
2022-11-26T14:54:56.223Z,27.10
2022-11-26T14:57:47.531Z,32.70
2022-11-26T15:00:15.413Z,28.40
2022-11-26T15:02:46.028Z,30.80
2022-11-26T15:05:14.126Z,29.60
2022-11-26T15:07:42.251Z,30.70
2022-11-26T15:10:16.127Z,30.80
2022-11-26T15:12:46.013Z,30.90
2022-11-26T15:15:20.685Z,25.60
2022-11-26T15:17:58.788Z,26.00
2022-11-26T15:20:27.539Z,25.50
2022-11-26T15:22:58.958Z,25.40
2022-11-26T15:25:33.402Z,28.70
2022-11-26T15:28:16.997Z,30.00
2022-11-26T15:31:02.549Z,33.90
2022-11-26T15:33:35.374Z,31.10
2022-11-26T15:36:05.427Z,31.10
2022-11-26T15:38:36.466Z,31.60
2022-11-26T15:43:45.607Z,29.90
2022-11-26T15:46:13.673Z,39.30
2022-11-26T15:48:52.061Z,37.70
2022-11-26T15:51:35.887Z,33.10
2022-11-26T15:54:38.462Z,40.40
2022-11-26T15:57:36.733Z,38.40
2022-11-26T16:00:28.379Z,37.40
2022-11-26T16:02:56.299Z,38.20
2022-11-26T16:05:38.713Z,44.30
2022-11-26T16:08:24.341Z,47.40
2022-11-26T16:11:21.380Z,38.20
2022-11-26T16:13:49.367Z,38.40
2022-11-26T16:16:20.483Z,39.30
2022-11-26T16:24:06.190Z,37.50
2022-11-26T16:27:05.260Z,43.30
2022-11-26T16:29:37.497Z,50.80
2022-11-26T16:32:05.428Z,57.60
2022-11-26T16:34:33.284Z,59.00
2022-11-26T16:37:23.939Z,47.40
2022-11-26T16:39:59.999Z,42.70
2022-11-26T16:42:31.467Z,48.40
2022-11-26T16:45:03.963Z,46.40
2022-11-26T16:47:36.941Z,49.60
2022-11-26T16:50:13.330Z,47.70
2022-11-26T16:52:42.851Z,53.90
2022-11-26T16:55:16.015Z,57.10
2022-11-26T16:57:46.615Z,57.60
2022-11-26T17:00:23.512Z,58.50
2022-11-26T17:02:52.216Z,56.60
2022-11-26T17:05:21.528Z,59.30
2022-11-26T17:07:53.595Z,54.10
2022-11-26T17:10:25.099Z,54.00
2022-11-26T17:12:53.124Z,32.20
2022-11-26T17:15:21.361Z,20.40
2022-11-26T17:17:51.276Z,21.80
2022-11-26T17:20:22.513Z,27.30
2022-11-26T17:22:50.686Z,29.70
2022-11-26T17:25:19.532Z,40.60
2022-11-26T17:27:48.061Z,49.40
2022-11-26T17:30:21.770Z,65.70
2022-11-26T17:32:50.685Z,58.70
2022-11-26T17:35:19.168Z,57.00
2022-11-26T17:37:47.076Z,59.80
2022-11-26T17:40:21.283Z,63.50
2022-11-26T17:42:49.907Z,64.00
2022-11-26T17:45:19.073Z,63.10
2022-11-26T17:47:47.344Z,64.70
2022-11-26T17:50:19.983Z,59.70
2022-11-26T17:52:48.827Z,56.10
2022-11-26T17:55:18.256Z,55.60
2022-11-26T17:57:46.244Z,53.10
2022-11-26T18:00:18.003Z,55.20
2022-11-26T18:02:46.437Z,55.90
2022-11-26T18:05:14.821Z,56.00
2022-11-26T18:07:43.059Z,56.50
2022-11-26T18:10:14.052Z,58.50
2022-11-26T18:12:43.128Z,65.40
2022-11-26T18:15:25.480Z,72.00
2022-11-26T18:17:55.310Z,74.90
2022-11-26T18:20:28.138Z,79.30
2022-11-26T18:22:59.019Z,82.60
2022-11-26T18:25:28.616Z,78.80
2022-11-26T18:27:56.405Z,80.30
2022-11-26T18:30:25.031Z,74.70
2022-11-26T18:32:53.228Z,73.40
2022-11-26T18:35:22.920Z,68.80
2022-11-26T18:37:51.259Z,60.80
2022-11-26T18:40:19.350Z,58.40
2022-11-26T18:42:52.353Z,55.10
2022-11-26T18:45:20.636Z,53.80
2022-11-26T18:47:48.526Z,65.20
2022-11-26T18:50:16.660Z,104.00
2022-11-26T18:52:44.552Z,143.20
2022-11-26T18:55:14.893Z,156.70
2022-11-26T18:57:42.792Z,157.20
2022-11-26T19:00:11.398Z,153.80
2022-11-26T19:02:39.378Z,149.80
2022-11-26T19:05:08.084Z,128.60
2022-11-26T19:07:37.147Z,113.10
2022-11-26T19:10:05.794Z,99.80
2022-11-26T19:12:33.577Z,100.10
2022-11-26T19:15:01.421Z,90.00
2022-11-26T19:17:29.408Z,87.60
2022-11-26T19:19:57.445Z,86.60
2022-11-26T19:22:25.296Z,76.40
2022-11-26T19:24:53.320Z,59.20
2022-11-26T19:27:21.297Z,50.70
2022-11-26T19:29:49.212Z,48.40
2022-11-26T19:32:17.619Z,49.50
2022-11-26T19:34:45.456Z,50.30
2022-11-26T19:37:13.422Z,65.90
2022-11-26T19:39:41.620Z,66.60
2022-11-26T19:42:09.950Z,72.00
2022-11-26T19:44:37.892Z,77.10
2022-11-26T19:47:05.758Z,69.20
2022-11-26T19:49:34.614Z,94.70
2022-11-26T19:52:02.615Z,108.70
2022-11-26T19:54:30.556Z,128.40
2022-11-26T19:56:58.576Z,133.60
2022-11-26T19:59:26.543Z,156.90
2022-11-26T20:01:55.971Z,176.70
2022-11-26T20:04:27.565Z,206.40
2022-11-26T20:06:55.877Z,180.50
2022-11-26T20:09:23.795Z,121.40
2022-11-26T20:11:51.600Z,84.10
2022-11-26T20:14:19.665Z,71.70
2022-11-26T20:16:47.595Z,71.30
2022-11-26T20:19:15.637Z,69.80
2022-11-26T20:21:43.513Z,61.60
2022-11-26T20:24:15.426Z,55.20
2022-11-26T20:26:45.479Z,55.10
2022-11-26T20:29:16.947Z,46.60
2022-11-26T20:31:47.720Z,43.80
2022-11-26T20:34:17.958Z,40.50
2022-11-26T20:36:46.037Z,45.10
2022-11-26T20:39:18.005Z,43.30
2022-11-26T20:41:46.739Z,46.40
2022-11-26T20:44:14.978Z,47.50
2022-11-26T20:46:42.939Z,45.30
2022-11-26T20:49:11.705Z,45.00
2022-11-26T20:51:39.833Z,55.10
2022-11-26T20:54:07.682Z,58.80
2022-11-26T20:56:35.487Z,55.80
2022-11-26T20:59:03.438Z,47.20
2022-11-26T21:01:31.717Z,46.10
2022-11-26T21:03:59.767Z,44.80
2022-11-26T21:06:30.625Z,47.80
2022-11-26T21:11:28.303Z,47.80
2022-11-26T21:13:58.340Z,54.40
2022-11-26T21:16:26.892Z,53.30
2022-11-26T21:18:55.805Z,58.90
2022-11-26T21:21:25.334Z,65.00
2022-11-26T21:23:54.238Z,66.90
2022-11-26T21:26:24.690Z,71.50
2022-11-26T21:28:54.973Z,62.90
2022-11-26T21:31:24.155Z,62.70
2022-11-26T21:33:57.900Z,68.70
2022-11-26T21:36:27.741Z,73.00
2022-11-26T21:38:55.959Z,69.80
2022-11-26T21:41:24.264Z,67.20
2022-11-26T21:43:52.307Z,64.90
2022-11-26T21:46:24.057Z,60.00
2022-11-26T21:48:53.739Z,50.00
2022-11-26T21:51:22.721Z,48.00
2022-11-26T21:53:51.232Z,49.70
2022-11-26T21:56:28.268Z,48.20
2022-11-26T21:58:57.933Z,48.00
2022-11-26T22:01:35.258Z,46.50
2022-11-26T22:04:12.048Z,48.30
2022-11-26T22:06:41.581Z,48.10
2022-11-26T22:09:09.631Z,47.90
2022-11-26T22:11:40.398Z,46.40
2022-11-26T22:14:10.322Z,50.40
2022-11-26T22:16:38.717Z,47.40
2022-11-26T22:19:06.972Z,44.80
2022-11-26T22:21:41.187Z,47.90
2022-11-26T22:24:15.511Z,48.50
2022-11-26T22:26:44.787Z,47.70
2022-11-26T22:29:18.693Z,49.20
2022-11-26T22:31:48.478Z,48.00
2022-11-26T22:34:18.996Z,43.60
2022-11-26T22:36:46.910Z,47.00
2022-11-26T22:39:17.464Z,47.80
2022-11-26T22:41:46.984Z,47.50
2022-11-26T22:44:15.996Z,48.90
2022-11-26T22:46:45.009Z,53.70
2022-11-26T22:49:15.945Z,50.50
2022-11-26T22:51:43.917Z,49.80
2022-11-26T22:54:15.373Z,48.60
2022-11-26T22:56:43.255Z,44.30
2022-11-26T22:59:13.643Z,49.90
2022-11-26T23:01:41.807Z,49.90
2022-11-26T23:04:11.363Z,45.50
2022-11-26T23:06:40.211Z,46.30
2022-11-26T23:09:10.222Z,45.00
2022-11-26T23:11:40.460Z,42.50
2022-11-26T23:14:09.702Z,41.60
2022-11-26T23:16:40.569Z,40.70
2022-11-26T23:19:09.198Z,40.10
2022-11-26T23:21:40.197Z,37.30
2022-11-26T23:26:38.904Z,37.00
2022-11-26T23:29:08.378Z,41.90
2022-11-26T23:31:42.264Z,39.40
2022-11-26T23:34:10.954Z,39.50
2022-11-26T23:36:39.331Z,39.80
2022-11-26T23:39:10.741Z,38.20
2022-11-26T23:41:38.837Z,43.10
2022-11-26T23:44:06.706Z,46.70
2022-11-26T23:46:37.411Z,43.80
2022-11-26T23:49:05.429Z,43.50
2022-11-26T23:51:33.936Z,46.60
2022-11-26T23:54:01.859Z,45.20
2022-11-26T23:56:32.955Z,46.20
2022-11-26T23:59:03.200Z,46.10
